Eizan Maru No.72 — JD2877 — position and weather

sailwx.info

Track history (hours):
 
Tides and Currents Weather Stations Pressure Air Temp Water Temp Dewpoint Dewpoint Depression Visibility Wind Speed Wind Dir Waves Ship Positions

Eizan Maru No.72

Last reported at 2018-Jan-21 20:00 UTC. Time now 2018-Jan-21 20:29 UTC.
Position N 35°02' E 139°39'.

Length 104 m; draft 6.5 m.

Type: Tanker. MMSI: 431000875.

Date/timePositionNaut miles runAvg speedWind from/ knotsBaromVisibWave heightAir tempDewpointWater temp
2018-Jan-21 20:00N 35°02' E 139°39'611.3
2018-Jan-21 19:30N 34°58' E 139°34'712.3
2018-Jan-21 18:56N 34°54' E 139°28'612.8
2018-Jan-21 18:30N 34°50' E 139°22'712.6
2018-Jan-21 17:59N 34°46' E 139°17'712.4
2018-Jan-21 17:25N 34°41' E 139°10'512.7
2018-Jan-21 17:00N 34°38' E 139°05'613.1
2018-Jan-21 16:30N 34°33' E 138°60'712.7
2018-Jan-21 16:00N 34°31' E 138°52'611.9
2018-Jan-21 15:29N 34°31' E 138°45'812.0
2018-Jan-21 14:51N 34°31' E 138°35'512.0
2018-Jan-21 14:28N 34°31' E 138°30'612.1
2018-Jan-21 13:57N 34°31' E 138°22'612.6
2018-Jan-21 13:28N 34°31' E 138°15'812.9
2018-Jan-21 12:53N 34°31' E 138°06'512.3
2018-Jan-21 12:28N 34°31' E 137°60'612.2
2018-Jan-21 12:00N 34°31' E 137°53'2912.4
2018-Jan-21 09:40N 34°31' E 137°18'212.2
2018-Jan-21 09:30N 34°31' E 137°15'712.1
2018-Jan-21 08:53N 34°31' E 137°06'811.0
2018-Jan-21 08:10N 34°35' E 136°58'311.6
2018-Jan-21 07:53N 34°37' E 136°55'511.9
2018-Jan-21 07:30N 34°40' E 136°50'612.7
2018-Jan-21 07:00N 34°46' E 136°47'612.3
2018-Jan-21 06:30N 34°52' E 136°46'611.8
2018-Jan-21 06:00N 34°57' E 136°47'3 5.1
2018-Jan-21 05:29N 34°59' E 136°50'0 0.0
2018-Jan-21 04:59N 34°59' E 136°50'0 0.0
2018-Jan-21 04:29N 34°59' E 136°50'0 0.0
2018-Jan-21 03:59N 34°59' E 136°50'0 0.0
2018-Jan-21 03:29N 34°59' E 136°50'0 0.0
2018-Jan-21 02:59N 34°59' E 136°50'0 0.0
2018-Jan-21 02:29N 34°59' E 136°50'0 0.0
2018-Jan-21 01:59N 34°59' E 136°50'0 0.0
2018-Jan-21 01:23N 34°59' E 136°50'0 0.0
2018-Jan-21 00:59N 34°59' E 136°50'0 0.0
2018-Jan-21 00:29N 34°59' E 136°50'0 0.0
2018-Jan-20 23:59N 34°59' E 136°50'0 0.6
2018-Jan-20 23:31N 34°59' E 136°50'2 3.9
2018-Jan-20 22:55N 34°58' E 136°47'0 0.0
2018-Jan-20 22:28N 34°58' E 136°47'0 0.0
2018-Jan-20 21:55N 34°58' E 136°47'0 0.0
2018-Jan-20 21:25N 34°58' E 136°47'2 5.0
2018-Jan-20 21:01N 34°56' E 136°47'612.5
2018-Jan-20 20:30N 34°50' E 136°47'612.0
2018-Jan-20 19:59N 34°44' E 136°50'912.7
2018-Jan-20 19:15N 34°36' E 136°57'313.2
2018-Jan-20 19:00N 34°34' E 136°60'611.8
2018-Jan-20 18:30N 34°32' E 137°07'612.6
2018-Jan-20 18:01N 34°32' E 137°14'612.4
2018-Jan-20 17:31N 34°32' E 137°22'5411.6
2018-Jan-20 12:51N 34°33' E 138°27'511.8
2018-Jan-20 12:28N 34°33' E 138°33'511.8
2018-Jan-20 12:00N 34°33' E 138°39'612.2
2018-Jan-20 11:28N 34°34' E 138°47'612.6
2018-Jan-20 11:00N 34°34' E 138°55'611.2
2018-Jan-20 10:29N 34°36' E 139°01'714.2
2018-Jan-20 09:59N 34°42' E 139°05'613.3
2018-Jan-20 09:31N 34°47' E 139°10'713.7
2018-Jan-20 09:00N 34°52' E 139°16'713.0
2018-Jan-20 08:30N 34°56' E 139°22'713.5
2018-Jan-20 07:59N 35°01' E 139°28'613.5
2018-Jan-20 07:30N 35°04' E 139°35'714.0
2018-Jan-20 07:01N 35°07' E 139°42'713.7
2018-Jan-20 06:31N 35°13' E 139°46'611.7
2018-Jan-20 06:00N 35°19' E 139°43'612.4
2018-Jan-20 05:31N 35°25' E 139°44'714.2
2018-Jan-20 05:01N 35°29' E 139°51'713.4
2018-Jan-20 04:30N 35°31' E 139°59'3 5.3
2018-Jan-20 04:00N 35°30' E 140°01'0 0.0
2018-Jan-20 03:30N 35°30' E 140°01'0 0.0
2018-Jan-20 03:00N 35°30' E 140°01'0 0.0
2018-Jan-20 02:30N 35°30' E 140°01'0 0.0
2018-Jan-20 02:00N 35°30' E 140°01'0 0.0
2018-Jan-20 01:30N 35°30' E 140°01'0 0.0
2018-Jan-20 01:00N 35°30' E 140°01'0 0.0
2018-Jan-20 00:30N 35°30' E 140°01'0 0.0
2018-Jan-20 00:00N 35°30' E 140°01'0 0.6
2018-Jan-19 23:30N 35°30' E 140°01'2 3.1
2018-Jan-19 23:00N 35°31' E 139°60'4 7.5
2018-Jan-19 22:29N 35°30' E 139°55'511.3
2018-Jan-19 22:00N 35°27' E 139°50'611.1
2018-Jan-19 21:30N 35°22' E 139°46'510.8
2018-Jan-19 21:00N 35°17' E 139°46'611.8
2018-Jan-19 20:30N 35°11' E 139°47'612.2
2018-Jan-19 20:00N 35°06' E 139°43'612.7
2018-Jan-19 19:30N 35°01' E 139°38'713.1
2018-Jan-19 19:00N 34°57' E 139°32'713.8
2018-Jan-19 18:30N 34°52' E 139°26'714.0
2018-Jan-19 18:00N 34°48' E 139°19'713.3
2018-Jan-19 17:30N 34°43' E 139°13'713.2
2018-Jan-19 17:00N 34°39' E 139°07'713.3
2018-Jan-19 16:31N 34°34' E 139°01'713.0
2018-Jan-19 16:00N 34°31' E 138°55'811.9
2018-Jan-19 15:20N 34°30' E 138°45'412.1
2018-Jan-19 14:58N 34°31' E 138°40'612.7
2018-Jan-19 14:29N 34°30' E 138°32'712.9
2018-Jan-19 13:57N 34°31' E 138°24'613.1
2018-Jan-19 13:29N 34°31' E 138°16'713.3
2018-Jan-19 12:59N 34°31' E 138°08'713.4
2018-Jan-19 12:28N 34°30' E 138°00'712.9
2018-Jan-19 11:55N 34°31' E 137°51'2214.0
2018-Jan-19 10:21N 34°31' E 137°25'513.9
2018-Jan-19 09:58N 34°31' E 137°18'713.5
2018-Jan-19 09:29N 34°31' E 137°11'712.6
2018-Jan-19 08:56N 34°32' E 137°02'612.7
2018-Jan-19 08:29N 34°36' E 136°57'612.8
2018-Jan-19 08:00N 34°40' E 136°51'713.2
2018-Jan-19 07:30N 34°45' E 136°47'713.2
2018-Jan-19 07:00N 34°52' E 136°45'612.6
2018-Jan-19 06:30N 34°58' E 136°48'2 4.8
2018-Jan-19 06:00N 34°59' E 136°50'0 0.0
2018-Jan-19 05:30N 34°59' E 136°50'0 0.0
2018-Jan-19 05:00N 34°59' E 136°50'0 0.0
2018-Jan-19 04:30N 34°59' E 136°50'0 0.0
2018-Jan-19 04:00N 34°59' E 136°50'0 0.0
2018-Jan-19 03:30N 34°59' E 136°50'0 0.0
2018-Jan-19 03:00N 34°59' E 136°50'0 0.0
2018-Jan-19 02:30N 34°59' E 136°50'0 0.0
2018-Jan-19 01:59N 34°59' E 136°50'0 0.0
2018-Jan-19 01:30N 34°59' E 136°50'0 0.0
2018-Jan-19 01:00N 34°59' E 136°50'0 0.0
2018-Jan-19 00:30N 34°59' E 136°50'0 0.0
2018-Jan-19 00:00N 34°59' E 136°50'0 0.5
2018-Jan-18 23:30N 34°59' E 136°50'3 5.4
2018-Jan-18 23:00N 34°58' E 136°47'0 0.1
2018-Jan-18 22:30N 34°58' E 136°47'0 0.0
2018-Jan-18 22:00N 34°58' E 136°47'0 0.0
2018-Jan-18 21:30N 34°58' E 136°47'0 0.0
2018-Jan-18 20:58N 34°58' E 136°47'0 0.0
2018-Jan-18 20:30N 34°58' E 136°47'0 0.0
2018-Jan-18 20:00N 34°58' E 136°47'0 0.0
2018-Jan-18 19:30N 34°58' E 136°47'0 0.0
2018-Jan-18 19:00N 34°58' E 136°47'0 0.0
2018-Jan-18 18:30N 34°58' E 136°47'0 0.1
2018-Jan-18 17:58N 34°58' E 136°47'0 0.0
2018-Jan-18 17:30N 34°58' E 136°47'0 0.0
2018-Jan-18 17:00N 34°58' E 136°47'0 0.0
2018-Jan-18 16:30N 34°58' E 136°47'0 0.0
2018-Jan-18 16:00N 34°58' E 136°47'0 0.1
2018-Jan-18 15:30N 34°58' E 136°47'0 0.0
2018-Jan-18 15:00N 34°58' E 136°47'0 0.1
2018-Jan-18 14:30N 34°58' E 136°47'0 0.0
2018-Jan-18 14:00N 34°58' E 136°47'0 0.0
2018-Jan-18 13:30N 34°58' E 136°47'0 0.1
2018-Jan-18 13:00N 34°58' E 136°47'5 9.2
2018-Jan-18 12:30N 34°53' E 136°47'611.0
2018-Jan-18 12:00N 34°48' E 136°47'611.4
2018-Jan-18 11:30N 34°43' E 136°51'3910.0
2018-Jan-18 07:38N 34°05' E 136°46'312.2
2018-Jan-18 07:26N 34°03' E 136°44'  
2018-Jan-12 12:14N 33°16' E 132°04'514.9
2018-Jan-12 11:55N 33°19' E 132°00'614.2
2018-Jan-12 11:30N 33°24' E 131°56'713.7
2018-Jan-12 11:00N 33°31' E 131°54'813.3
2018-Jan-12 10:26N 33°38' E 131°51'613.3
2018-Jan-12 09:59N 33°43' E 131°49'613.1
2018-Jan-12 09:30N 33°49' E 131°47'713.2
2018-Jan-12 08:59N 33°56' E 131°45'510.9
2018-Jan-12 08:30N 34°01' E 131°48'2 3.5
2018-Jan-12 08:00N 34°02' E 131°49'0 0.0
2018-Jan-12 07:30N 34°02' E 131°49'0 0.0
2018-Jan-12 06:59N 34°02' E 131°49'0 0.0
2018-Jan-12 06:30N 34°02' E 131°49'0 0.0
2018-Jan-12 05:59N 34°02' E 131°49'0 0.0
2018-Jan-12 05:27N 34°02' E 131°49'0 0.0
2018-Jan-12 05:00N 34°02' E 131°49'0 0.0
2018-Jan-12 04:30N 34°02' E 131°49'0 0.0
2018-Jan-12 04:00N 34°02' E 131°49'0 0.0
2018-Jan-12 03:30N 34°02' E 131°49'1 2.1
2018-Jan-12 03:00N 34°01' E 131°48'1 2.7
2018-Jan-12 02:28N 34°01' E 131°47'0 0.0
2018-Jan-12 01:40N 34°01' E 131°47'0 0.1
2018-Jan-12 01:28N 34°01' E 131°47'0 0.0
2018-Jan-12 00:58N 34°01' E 131°47'0 0.0
2018-Jan-12 00:28N 34°01' E 131°47'0 0.0
2018-Jan-11 23:58N 34°01' E 131°47'0 0.0
2018-Jan-11 23:28N 34°01' E 131°47'0 0.0
2018-Jan-11 22:58N 34°01' E 131°47'0 0.0
2018-Jan-11 22:28N 34°01' E 131°47'0 0.0
2018-Jan-11 21:52N 34°01' E 131°47'0 0.0
2018-Jan-11 21:28N 34°01' E 131°47'0 0.0
2018-Jan-11 20:58N 34°01' E 131°47'0 0.0
2018-Jan-11 20:28N 34°01' E 131°47'  
Track history (hours):
 
Tides and Currents Weather Stations Pressure Air Temp Water Temp Dewpoint Dewpoint Depression Visibility Wind Speed Wind Dir Waves Ship Positions

Eizan Maru No.72

Last reported at 2018-Jan-21 20:00 UTC. Time now 2018-Jan-21 20:29 UTC.
Position N 35°02' E 139°39'.

Length 104 m; draft 6.5 m.

Type: Tanker. MMSI: 431000875.

Date/timePositionNaut miles runAvg speedWind from/ knotsBaromVisibWave heightAir tempDewpointWater temp
2018-Jan-21 20:00N 35°02' E 139°39'611.3
2018-Jan-21 19:30N 34°58' E 139°34'712.3
2018-Jan-21 18:56N 34°54' E 139°28'612.8
2018-Jan-21 18:30N 34°50' E 139°22'712.6
2018-Jan-21 17:59N 34°46' E 139°17'712.4
2018-Jan-21 17:25N 34°41' E 139°10'512.7
2018-Jan-21 17:00N 34°38' E 139°05'613.1
2018-Jan-21 16:30N 34°33' E 138°60'712.7
2018-Jan-21 16:00N 34°31' E 138°52'611.9
2018-Jan-21 15:29N 34°31' E 138°45'812.0
2018-Jan-21 14:51N 34°31' E 138°35'512.0
2018-Jan-21 14:28N 34°31' E 138°30'612.1
2018-Jan-21 13:57N 34°31' E 138°22'612.6
2018-Jan-21 13:28N 34°31' E 138°15'812.9
2018-Jan-21 12:53N 34°31' E 138°06'512.3
2018-Jan-21 12:28N 34°31' E 137°60'612.2
2018-Jan-21 12:00N 34°31' E 137°53'2912.4
2018-Jan-21 09:40N 34°31' E 137°18'212.2
2018-Jan-21 09:30N 34°31' E 137°15'712.1
2018-Jan-21 08:53N 34°31' E 137°06'811.0
2018-Jan-21 08:10N 34°35' E 136°58'311.6
2018-Jan-21 07:53N 34°37' E 136°55'511.9
2018-Jan-21 07:30N 34°40' E 136°50'612.7
2018-Jan-21 07:00N 34°46' E 136°47'612.3
2018-Jan-21 06:30N 34°52' E 136°46'611.8
2018-Jan-21 06:00N 34°57' E 136°47'3 5.1
2018-Jan-21 05:29N 34°59' E 136°50'0 0.0
2018-Jan-21 04:59N 34°59' E 136°50'0 0.0
2018-Jan-21 04:29N 34°59' E 136°50'0 0.0
2018-Jan-21 03:59N 34°59' E 136°50'0 0.0
2018-Jan-21 03:29N 34°59' E 136°50'0 0.0
2018-Jan-21 02:59N 34°59' E 136°50'0 0.0
2018-Jan-21 02:29N 34°59' E 136°50'0 0.0
2018-Jan-21 01:59N 34°59' E 136°50'0 0.0
2018-Jan-21 01:23N 34°59' E 136°50'0 0.0
2018-Jan-21 00:59N 34°59' E 136°50'0 0.0
2018-Jan-21 00:29N 34°59' E 136°50'0 0.0
2018-Jan-20 23:59N 34°59' E 136°50'0 0.6
2018-Jan-20 23:31N 34°59' E 136°50'2 3.9
2018-Jan-20 22:55N 34°58' E 136°47'0 0.0
2018-Jan-20 22:28N 34°58' E 136°47'0 0.0
2018-Jan-20 21:55N 34°58' E 136°47'0 0.0
2018-Jan-20 21:25N 34°58' E 136°47'2 5.0
2018-Jan-20 21:01N 34°56' E 136°47'612.5
2018-Jan-20 20:30N 34°50' E 136°47'612.0
2018-Jan-20 19:59N 34°44' E 136°50'912.7
2018-Jan-20 19:15N 34°36' E 136°57'313.2
2018-Jan-20 19:00N 34°34' E 136°60'611.8
2018-Jan-20 18:30N 34°32' E 137°07'612.6
2018-Jan-20 18:01N 34°32' E 137°14'612.4
2018-Jan-20 17:31N 34°32' E 137°22'5411.6
2018-Jan-20 12:51N 34°33' E 138°27'511.8
2018-Jan-20 12:28N 34°33' E 138°33'511.8
2018-Jan-20 12:00N 34°33' E 138°39'612.2
2018-Jan-20 11:28N 34°34' E 138°47'612.6
2018-Jan-20 11:00N 34°34' E 138°55'611.2
2018-Jan-20 10:29N 34°36' E 139°01'714.2
2018-Jan-20 09:59N 34°42' E 139°05'613.3
2018-Jan-20 09:31N 34°47' E 139°10'713.7
2018-Jan-20 09:00N 34°52' E 139°16'713.0
2018-Jan-20 08:30N 34°56' E 139°22'713.5
2018-Jan-20 07:59N 35°01' E 139°28'613.5
2018-Jan-20 07:30N 35°04' E 139°35'714.0
2018-Jan-20 07:01N 35°07' E 139°42'713.7
2018-Jan-20 06:31N 35°13' E 139°46'611.7
2018-Jan-20 06:00N 35°19' E 139°43'612.4
2018-Jan-20 05:31N 35°25' E 139°44'714.2
2018-Jan-20 05:01N 35°29' E 139°51'713.4
2018-Jan-20 04:30N 35°31' E 139°59'3 5.3
2018-Jan-20 04:00N 35°30' E 140°01'0 0.0
2018-Jan-20 03:30N 35°30' E 140°01'0 0.0
2018-Jan-20 03:00N 35°30' E 140°01'0 0.0
2018-Jan-20 02:30N 35°30' E 140°01'0 0.0
2018-Jan-20 02:00N 35°30' E 140°01'0 0.0
2018-Jan-20 01:30N 35°30' E 140°01'0 0.0
2018-Jan-20 01:00N 35°30' E 140°01'0 0.0
2018-Jan-20 00:30N 35°30' E 140°01'0 0.0
2018-Jan-20 00:00N 35°30' E 140°01'0 0.6
2018-Jan-19 23:30N 35°30' E 140°01'2 3.1
2018-Jan-19 23:00N 35°31' E 139°60'4 7.5
2018-Jan-19 22:29N 35°30' E 139°55'511.3
2018-Jan-19 22:00N 35°27' E 139°50'611.1
2018-Jan-19 21:30N 35°22' E 139°46'510.8
2018-Jan-19 21:00N 35°17' E 139°46'611.8
2018-Jan-19 20:30N 35°11' E 139°47'612.2
2018-Jan-19 20:00N 35°06' E 139°43'612.7
2018-Jan-19 19:30N 35°01' E 139°38'713.1
2018-Jan-19 19:00N 34°57' E 139°32'713.8
2018-Jan-19 18:30N 34°52' E 139°26'714.0
2018-Jan-19 18:00N 34°48' E 139°19'713.3
2018-Jan-19 17:30N 34°43' E 139°13'713.2
2018-Jan-19 17:00N 34°39' E 139°07'713.3
2018-Jan-19 16:31N 34°34' E 139°01'713.0
2018-Jan-19 16:00N 34°31' E 138°55'811.9
2018-Jan-19 15:20N 34°30' E 138°45'412.1
2018-Jan-19 14:58N 34°31' E 138°40'612.7
2018-Jan-19 14:29N 34°30' E 138°32'712.9
2018-Jan-19 13:57N 34°31' E 138°24'613.1
2018-Jan-19 13:29N 34°31' E 138°16'713.3
2018-Jan-19 12:59N 34°31' E 138°08'713.4
2018-Jan-19 12:28N 34°30' E 138°00'712.9
2018-Jan-19 11:55N 34°31' E 137°51'2214.0
2018-Jan-19 10:21N 34°31' E 137°25'513.9
2018-Jan-19 09:58N 34°31' E 137°18'713.5
2018-Jan-19 09:29N 34°31' E 137°11'712.6
2018-Jan-19 08:56N 34°32' E 137°02'612.7
2018-Jan-19 08:29N 34°36' E 136°57'612.8
2018-Jan-19 08:00N 34°40' E 136°51'713.2
2018-Jan-19 07:30N 34°45' E 136°47'713.2
2018-Jan-19 07:00N 34°52' E 136°45'612.6
2018-Jan-19 06:30N 34°58' E 136°48'2 4.8
2018-Jan-19 06:00N 34°59' E 136°50'0 0.0
2018-Jan-19 05:30N 34°59' E 136°50'0 0.0
2018-Jan-19 05:00N 34°59' E 136°50'0 0.0
2018-Jan-19 04:30N 34°59' E 136°50'0 0.0
2018-Jan-19 04:00N 34°59' E 136°50'0 0.0
2018-Jan-19 03:30N 34°59' E 136°50'0 0.0
2018-Jan-19 03:00N 34°59' E 136°50'0 0.0
2018-Jan-19 02:30N 34°59' E 136°50'0 0.0
2018-Jan-19 01:59N 34°59' E 136°50'0 0.0
2018-Jan-19 01:30N 34°59' E 136°50'0 0.0
2018-Jan-19 01:00N 34°59' E 136°50'0 0.0
2018-Jan-19 00:30N 34°59' E 136°50'0 0.0
2018-Jan-19 00:00N 34°59' E 136°50'0 0.5
2018-Jan-18 23:30N 34°59' E 136°50'3 5.4
2018-Jan-18 23:00N 34°58' E 136°47'0 0.1
2018-Jan-18 22:30N 34°58' E 136°47'0 0.0
2018-Jan-18 22:00N 34°58' E 136°47'0 0.0
2018-Jan-18 21:30N 34°58' E 136°47'0 0.0
2018-Jan-18 20:58N 34°58' E 136°47'0 0.0
2018-Jan-18 20:30N 34°58' E 136°47'0 0.0
2018-Jan-18 20:00N 34°58' E 136°47'0 0.0
2018-Jan-18 19:30N 34°58' E 136°47'0 0.0
2018-Jan-18 19:00N 34°58' E 136°47'0 0.0
2018-Jan-18 18:30N 34°58' E 136°47'0 0.1
2018-Jan-18 17:58N 34°58' E 136°47'0 0.0
2018-Jan-18 17:30N 34°58' E 136°47'0 0.0
2018-Jan-18 17:00N 34°58' E 136°47'0 0.0
2018-Jan-18 16:30N 34°58' E 136°47'0 0.0
2018-Jan-18 16:00N 34°58' E 136°47'0 0.1
2018-Jan-18 15:30N 34°58' E 136°47'0 0.0
2018-Jan-18 15:00N 34°58' E 136°47'0 0.1
2018-Jan-18 14:30N 34°58' E 136°47'0 0.0
2018-Jan-18 14:00N 34°58' E 136°47'0 0.0
2018-Jan-18 13:30N 34°58' E 136°47'0 0.1
2018-Jan-18 13:00N 34°58' E 136°47'5 9.2
2018-Jan-18 12:30N 34°53' E 136°47'611.0
2018-Jan-18 12:00N 34°48' E 136°47'611.4
2018-Jan-18 11:30N 34°43' E 136°51'3910.0
2018-Jan-18 07:38N 34°05' E 136°46'312.2
2018-Jan-18 07:26N 34°03' E 136°44'  
2018-Jan-12 12:14N 33°16' E 132°04'514.9
2018-Jan-12 11:55N 33°19' E 132°00'614.2
2018-Jan-12 11:30N 33°24' E 131°56'713.7
2018-Jan-12 11:00N 33°31' E 131°54'813.3
2018-Jan-12 10:26N 33°38' E 131°51'613.3
2018-Jan-12 09:59N 33°43' E 131°49'613.1
2018-Jan-12 09:30N 33°49' E 131°47'713.2
2018-Jan-12 08:59N 33°56' E 131°45'510.9
2018-Jan-12 08:30N 34°01' E 131°48'2 3.5
2018-Jan-12 08:00N 34°02' E 131°49'0 0.0
2018-Jan-12 07:30N 34°02' E 131°49'0 0.0
2018-Jan-12 06:59N 34°02' E 131°49'0 0.0
2018-Jan-12 06:30N 34°02' E 131°49'0 0.0
2018-Jan-12 05:59N 34°02' E 131°49'0 0.0
2018-Jan-12 05:27N 34°02' E 131°49'0 0.0
2018-Jan-12 05:00N 34°02' E 131°49'0 0.0
2018-Jan-12 04:30N 34°02' E 131°49'0 0.0
2018-Jan-12 04:00N 34°02' E 131°49'0 0.0
2018-Jan-12 03:30N 34°02' E 131°49'1 2.1
2018-Jan-12 03:00N 34°01' E 131°48'1 2.7
2018-Jan-12 02:28N 34°01' E 131°47'0 0.0
2018-Jan-12 01:40N 34°01' E 131°47'0 0.1
2018-Jan-12 01:28N 34°01' E 131°47'0 0.0
2018-Jan-12 00:58N 34°01' E 131°47'0 0.0
2018-Jan-12 00:28N 34°01' E 131°47'0 0.0
2018-Jan-11 23:58N 34°01' E 131°47'0 0.0
2018-Jan-11 23:28N 34°01' E 131°47'0 0.0
2018-Jan-11 22:58N 34°01' E 131°47'0 0.0
2018-Jan-11 22:28N 34°01' E 131°47'0 0.0
2018-Jan-11 21:52N 34°01' E 131°47'0 0.0
2018-Jan-11 21:28N 34°01' E 131°47'0 0.0
2018-Jan-11 20:58N 34°01' E 131°47'0 0.0
2018-Jan-11 20:28N 34°01' E 131°47'  

Dump ship's entire track history